sensor_id;sensor_type;location;lat;lon;timestamp;pressure;altitude;pressure_sealevel;temperature;humidity
17873;BME280;36318;42.620;23.338;2023-02-20T00:00:16;93263.94;;;9.50;100.00
17873;BME280;36318;42.620;23.338;2023-02-20T00:02:44;93269.34;;;9.47;100.00
17873;BME280;36318;42.620;23.338;2023-02-20T00:05:11;93266.03;;;9.45;100.00
17873;BME280;36318;42.620;23.338;2023-02-20T00:07:38;93268.84;;;9.42;100.00
17873;BME280;36318;42.620;23.338;2023-02-20T00:10:05;93269.78;;;9.41;100.00
17873;BME280;36318;42.620;23.338;2023-02-20T00:12:33;93265.66;;;9.39;100.00
17873;BME280;36318;42.620;23.338;2023-02-20T00:15:00;93264.94;;;9.37;100.00
17873;BME280;36318;42.620;23.338;2023-02-20T00:17:27;93263.50;;;9.33;100.00
17873;BME280;36318;42.620;23.338;2023-02-20T00:19:53;93253.47;;;9.28;100.00
17873;BME280;36318;42.620;23.338;2023-02-20T00:22:20;93261.25;;;9.28;100.00
17873;BME280;36318;42.620;23.338;2023-02-20T00:24:46;93257.34;;;9.23;100.00
17873;BME280;36318;42.620;23.338;2023-02-20T00:27:13;93252.28;;;9.21;100.00
17873;BME280;36318;42.620;23.338;2023-02-20T00:29:41;93247.00;;;9.23;100.00
17873;BME280;36318;42.620;23.338;2023-02-20T00:32:09;93259.22;;;9.21;100.00
17873;BME280;36318;42.620;23.338;2023-02-20T00:34:35;93252.06;;;9.24;100.00
17873;BME280;36318;42.620;23.338;2023-02-20T00:37:02;93253.44;;;9.17;100.00
17873;BME280;36318;42.620;23.338;2023-02-20T00:39:30;93252.50;;;9.18;100.00
17873;BME280;36318;42.620;23.338;2023-02-20T00:41:56;93231.19;;;9.15;100.00
17873;BME280;36318;42.620;23.338;2023-02-20T00:44:23;93241.66;;;9.13;100.00
17873;BME280;36318;42.620;23.338;2023-02-20T00:46:51;93233.41;;;9.08;100.00
17873;BME280;36318;42.620;23.338;2023-02-20T00:49:17;93226.13;;;9.13;100.00
17873;BME280;36318;42.620;23.338;2023-02-20T00:51:44;93235.53;;;9.14;100.00
17873;BME280;36318;42.620;23.338;2023-02-20T00:54:11;93238.94;;;9.15;99.83
17873;BME280;36318;42.620;23.338;2023-02-20T00:56:37;93236.97;;;9.18;94.95
17873;BME280;36318;42.620;23.338;2023-02-20T00:59:04;93245.84;;;9.27;89.12
17873;BME280;36318;42.620;23.338;2023-02-20T01:01:31;93256.06;;;9.28;90.65
17873;BME280;36318;42.620;23.338;2023-02-20T01:03:59;93258.19;;;9.23;93.99
17873;BME280;36318;42.620;23.338;2023-02-20T01:06:25;93254.16;;;9.19;99.35
17873;BME280;36318;42.620;23.338;2023-02-20T01:08:52;93260.50;;;9.15;100.00
17873;BME280;36318;42.620;23.338;2023-02-20T01:11:18;93272.94;;;9.10;100.00
17873;BME280;36318;42.620;23.338;2023-02-20T01:13:45;93277.63;;;9.05;100.00
17873;BME280;36318;42.620;23.338;2023-02-20T01:16:11;93291.63;;;9.02;100.00
17873;BME280;36318;42.620;23.338;2023-02-20T01:18:38;93286.75;;;8.98;100.00
17873;BME280;36318;42.620;23.338;2023-02-20T01:21:06;93284.50;;;8.93;100.00
17873;BME280;36318;42.620;23.338;2023-02-20T01:23:32;93289.41;;;8.85;100.00
17873;BME280;36318;42.620;23.338;2023-02-20T01:25:59;93287.84;;;8.83;100.00
17873;BME280;36318;42.620;23.338;2023-02-20T01:28:25;93296.88;;;8.77;100.00
17873;BME280;36318;42.620;23.338;2023-02-20T01:30:52;93297.00;;;8.76;100.00
17873;BME280;36318;42.620;23.338;2023-02-20T01:33:19;93296.69;;;8.68;100.00
17873;BME280;36318;42.620;23.338;2023-02-20T01:35:45;93292.66;;;8.64;100.00
17873;BME280;36318;42.620;23.338;2023-02-20T01:38:13;93292.47;;;8.67;100.00
17873;BME280;36318;42.620;23.338;2023-02-20T01:40:45;93292.84;;;8.73;100.00
17873;BME280;36318;42.620;23.338;2023-02-20T01:43:11;93314.56;;;8.83;100.00
17873;BME280;36318;42.620;23.338;2023-02-20T01:45:38;93310.22;;;8.84;100.00
17873;BME280;36318;42.620;23.338;2023-02-20T01:48:05;93316.00;;;8.87;100.00
17873;BME280;36318;42.620;23.338;2023-02-20T01:50:34;93314.25;;;8.88;100.00
17873;BME280;36318;42.620;23.338;2023-02-20T01:53:03;93316.13;;;8.86;100.00
17873;BME280;36318;42.620;23.338;2023-02-20T01:55:35;93321.50;;;8.83;100.00
17873;BME280;36318;42.620;23.338;2023-02-20T01:58:04;93307.84;;;8.81;100.00
17873;BME280;36318;42.620;23.338;2023-02-20T02:00:31;93311.56;;;8.77;100.00
17873;BME280;36318;42.620;23.338;2023-02-20T02:02:59;93327.53;;;8.71;100.00
17873;BME280;36318;42.620;23.338;2023-02-20T02:05:27;93332.19;;;8.66;100.00
17873;BME280;36318;42.620;23.338;2023-02-20T02:07:54;93337.47;;;8.64;100.00
17873;BME280;36318;42.620;23.338;2023-02-20T02:10:23;93337.69;;;8.61;100.00
17873;BME280;36318;42.620;23.338;2023-02-20T02:12:52;93333.56;;;8.59;100.00
17873;BME280;36318;42.620;23.338;2023-02-20T02:15:20;93342.06;;;8.48;100.00
17873;BME280;36318;42.620;23.338;2023-02-20T02:17:55;93332.75;;;8.46;100.00
17873;BME280;36318;42.620;23.338;2023-02-20T02:20:38;93335.34;;;8.46;100.00
17873;BME280;36318;42.620;23.338;2023-02-20T02:25:57;93328.53;;;8.32;100.00
17873;BME280;36318;42.620;23.338;2023-02-20T02:28:50;93317.34;;;8.31;100.00
17873;BME280;36318;42.620;23.338;2023-02-20T02:31:36;93330.66;;;8.25;100.00
17873;BME280;36318;42.620;23.338;2023-02-20T02:34:09;93321.25;;;8.24;100.00
17873;BME280;36318;42.620;23.338;2023-02-20T02:36:47;93325.88;;;8.19;100.00
17873;BME280;36318;42.620;23.338;2023-02-20T02:39:17;93322.28;;;8.09;100.00
17873;BME280;36318;42.620;23.338;2023-02-20T02:41:51;93345.03;;;8.04;100.00
17873;BME280;36318;42.620;23.338;2023-02-20T02:44:21;93348.00;;;7.98;100.00
17873;BME280;36318;42.620;23.338;2023-02-20T02:46:53;93346.84;;;7.90;100.00
17873;BME280;36318;42.620;23.338;2023-02-20T02:49:23;93342.53;;;7.90;100.00
17873;BME280;36318;42.620;23.338;2023-02-20T02:51:53;93341.41;;;7.94;100.00
17873;BME280;36318;42.620;23.338;2023-02-20T02:54:23;93341.22;;;7.97;100.00
17873;BME280;36318;42.620;23.338;2023-02-20T02:56:51;93341.72;;;8.02;100.00
17873;BME280;36318;42.620;23.338;2023-02-20T02:59:19;93335.81;;;8.00;100.00
17873;BME280;36318;42.620;23.338;2023-02-20T03:01:48;93342.56;;;8.03;100.00
17873;BME280;36318;42.620;23.338;2023-02-20T03:04:16;93335.09;;;7.98;100.00
17873;BME280;36318;42.620;23.338;2023-02-20T03:06:56;93336.94;;;7.96;100.00
17873;BME280;36318;42.620;23.338;2023-02-20T03:09:25;93340.25;;;7.98;100.00
17873;BME280;36318;42.620;23.338;2023-02-20T03:11:53;93342.13;;;7.96;100.00
17873;BME280;36318;42.620;23.338;2023-02-20T03:14:22;93344.81;;;7.95;100.00
17873;BME280;36318;42.620;23.338;2023-02-20T03:17:09;93344.38;;;7.88;100.00
17873;BME280;36318;42.620;23.338;2023-02-20T03:19:40;93353.25;;;7.84;100.00
17873;BME280;36318;42.620;23.338;2023-02-20T03:22:09;93359.03;;;7.75;100.00
17873;BME280;36318;42.620;23.338;2023-02-20T03:24:38;93369.78;;;7.69;100.00
17873;BME280;36318;42.620;23.338;2023-02-20T03:27:20;93382.03;;;7.65;100.00
17873;BME280;36318;42.620;23.338;2023-02-20T03:29:47;93368.94;;;7.68;100.00
17873;BME280;36318;42.620;23.338;2023-02-20T03:32:16;93372.34;;;7.56;100.00
17873;BME280;36318;42.620;23.338;2023-02-20T03:35:00;93392.88;;;7.58;100.00
17873;BME280;36318;42.620;23.338;2023-02-20T03:37:47;93393.81;;;7.57;100.00
17873;BME280;36318;42.620;23.338;2023-02-20T03:40:33;93408.38;;;7.58;100.00
17873;BME280;36318;42.620;23.338;2023-02-20T03:43:18;93411.78;;;7.58;100.00
17873;BME280;36318;42.620;23.338;2023-02-20T03:45:48;93403.94;;;7.60;100.00
17873;BME280;36318;42.620;23.338;2023-02-20T03:48:18;93386.16;;;7.55;100.00
17873;BME280;36318;42.620;23.338;2023-02-20T03:50:45;93396.69;;;7.52;100.00
17873;BME280;36318;42.620;23.338;2023-02-20T03:53:13;93383.16;;;7.49;100.00
17873;BME280;36318;42.620;23.338;2023-02-20T03:55:40;93395.13;;;7.50;100.00
17873;BME280;36318;42.620;23.338;2023-02-20T03:58:08;93385.75;;;7.49;100.00
17873;BME280;36318;42.620;23.338;2023-02-20T04:00:38;93387.16;;;7.40;100.00
17873;BME280;36318;42.620;23.338;2023-02-20T04:03:08;93399.31;;;7.38;100.00
17873;BME280;36318;42.620;23.338;2023-02-20T04:05:36;93405.13;;;7.42;100.00
17873;BME280;36318;42.620;23.338;2023-02-20T04:08:05;93419.06;;;7.39;100.00
17873;BME280;36318;42.620;23.338;2023-02-20T04:10:37;93406.59;;;7.46;100.00
17873;BME280;36318;42.620;23.338;2023-02-20T04:13:05;93411.75;;;7.46;100.00
17873;BME280;36318;42.620;23.338;2023-02-20T04:15:32;93415.59;;;7.53;100.00
17873;BME280;36318;42.620;23.338;2023-02-20T04:18:00;93418.19;;;7.53;100.00
17873;BME280;36318;42.620;23.338;2023-02-20T04:20:28;93407.72;;;7.54;100.00
17873;BME280;36318;42.620;23.338;2023-02-20T04:22:56;93409.31;;;7.57;100.00
17873;BME280;36318;42.620;23.338;2023-02-20T04:25:26;93412.09;;;7.54;100.00
17873;BME280;36318;42.620;23.338;2023-02-20T04:27:59;93431.19;;;7.51;100.00
17873;BME280;36318;42.620;23.338;2023-02-20T04:30:27;93421.97;;;7.47;100.00
17873;BME280;36318;42.620;23.338;2023-02-20T04:32:53;93421.91;;;7.49;100.00
17873;BME280;36318;42.620;23.338;2023-02-20T04:35:20;93414.88;;;7.51;100.00
17873;BME280;36318;42.620;23.338;2023-02-20T04:37:46;93411.75;;;7.46;100.00
17873;BME280;36318;42.620;23.338;2023-02-20T04:40:14;93418.13;;;7.40;100.00
17873;BME280;36318;42.620;23.338;2023-02-20T04:42:40;93401.28;;;7.35;100.00
17873;BME280;36318;42.620;23.338;2023-02-20T04:45:09;93395.56;;;7.30;100.00
17873;BME280;36318;42.620;23.338;2023-02-20T04:47:35;93380.47;;;7.23;100.00
17873;BME280;36318;42.620;23.338;2023-02-20T04:50:02;93400.19;;;7.24;100.00
17873;BME280;36318;42.620;23.338;2023-02-20T04:52:29;93409.41;;;7.29;100.00
17873;BME280;36318;42.620;23.338;2023-02-20T04:54:56;93411.44;;;7.23;100.00
17873;BME280;36318;42.620;23.338;2023-02-20T04:57:22;93405.56;;;7.21;100.00
17873;BME280;36318;42.620;23.338;2023-02-20T04:59:49;93420.22;;;7.21;100.00
17873;BME280;36318;42.620;23.338;2023-02-20T05:02:17;93429.88;;;7.17;100.00
17873;BME280;36318;42.620;23.338;2023-02-20T05:04:43;93425.44;;;7.19;100.00
17873;BME280;36318;42.620;23.338;2023-02-20T05:07:10;93444.53;;;7.17;100.00
17873;BME280;36318;42.620;23.338;2023-02-20T05:09:36;93436.97;;;7.14;100.00
17873;BME280;36318;42.620;23.338;2023-02-20T05:12:03;93444.28;;;7.07;100.00
17873;BME280;36318;42.620;23.338;2023-02-20T05:14:30;93449.09;;;7.13;100.00
17873;BME280;36318;42.620;23.338;2023-02-20T05:16:56;93454.31;;;7.12;100.00
17873;BME280;36318;42.620;23.338;2023-02-20T05:19:24;93459.06;;;7.05;100.00
17873;BME280;36318;42.620;23.338;2023-02-20T05:21:51;93443.75;;;7.02;100.00
17873;BME280;36318;42.620;23.338;2023-02-20T05:24:35;93456.19;;;6.96;100.00
17873;BME280;36318;42.620;23.338;2023-02-20T05:27:01;93450.00;;;6.98;100.00
17873;BME280;36318;42.620;23.338;2023-02-20T05:29:28;93474.34;;;6.94;100.00
17873;BME280;36318;42.620;23.338;2023-02-20T05:31:54;93471.78;;;6.94;100.00
17873;BME280;36318;42.620;23.338;2023-02-20T05:34:21;93477.28;;;7.02;100.00
17873;BME280;36318;42.620;23.338;2023-02-20T05:36:51;93479.47;;;7.08;100.00
17873;BME280;36318;42.620;23.338;2023-02-20T05:39:17;93479.28;;;7.11;100.00
17873;BME280;36318;42.620;23.338;2023-02-20T05:41:44;93468.16;;;7.11;100.00
17873;BME280;36318;42.620;23.338;2023-02-20T05:44:11;93487.97;;;7.10;100.00
17873;BME280;36318;42.620;23.338;2023-02-20T05:46:38;93476.00;;;7.09;100.00
17873;BME280;36318;42.620;23.338;2023-02-20T05:49:05;93472.75;;;7.06;100.00
17873;BME280;36318;42.620;23.338;2023-02-20T05:51:31;93479.28;;;7.11;100.00
17873;BME280;36318;42.620;23.338;2023-02-20T05:53:59;93482.63;;;7.13;100.00
17873;BME280;36318;42.620;23.338;2023-02-20T05:56:26;93478.72;;;7.35;100.00
17873;BME280;36318;42.620;23.338;2023-02-20T05:58:54;93467.25;;;7.53;99.49
17873;BME280;36318;42.620;23.338;2023-02-20T06:01:21;93488.03;;;7.78;91.79
17873;BME280;36318;42.620;23.338;2023-02-20T06:03:48;93469.22;;;8.03;84.51
17873;BME280;36318;42.620;23.338;2023-02-20T06:06:15;93475.03;;;8.19;78.71
17873;BME280;36318;42.620;23.338;2023-02-20T06:08:42;93481.81;;;8.34;74.59
17873;BME280;36318;42.620;23.338;2023-02-20T06:11:13;93473.34;;;8.45;71.76
17873;BME280;36318;42.620;23.338;2023-02-20T06:13:39;93492.16;;;8.47;71.96
17873;BME280;36318;42.620;23.338;2023-02-20T06:16:07;93508.63;;;8.46;71.33
17873;BME280;36318;42.620;23.338;2023-02-20T06:18:36;93502.72;;;8.43;71.66
17873;BME280;36318;42.620;23.338;2023-02-20T06:21:05;93503.25;;;8.49;72.00
17873;BME280;36318;42.620;23.338;2023-02-20T06:23:32;93487.75;;;8.61;71.65
17873;BME280;36318;42.620;23.338;2023-02-20T06:25:59;93453.38;;;8.97;68.99
17873;BME280;36318;42.620;23.338;2023-02-20T06:28:27;93478.09;;;9.62;65.73
17873;BME280;36318;42.620;23.338;2023-02-20T06:30:54;93474.41;;;10.14;63.44
17873;BME280;36318;42.620;23.338;2023-02-20T06:33:20;93471.00;;;10.48;62.10
17873;BME280;36318;42.620;23.338;2023-02-20T06:35:47;93482.94;;;11.19;61.18
17873;BME280;36318;42.620;23.338;2023-02-20T06:38:14;93501.25;;;11.62;58.39
17873;BME280;36318;42.620;23.338;2023-02-20T06:40:40;93488.13;;;11.52;57.42
17873;BME280;36318;42.620;23.338;2023-02-20T06:43:07;93491.31;;;11.45;56.06
17873;BME280;36318;42.620;23.338;2023-02-20T06:45:35;93516.22;;;11.03;57.72
17873;BME280;36318;42.620;23.338;2023-02-20T06:48:01;93514.31;;;10.94;58.41
17873;BME280;36318;42.620;23.338;2023-02-20T06:50:28;93518.88;;;10.79;58.29
17873;BME280;36318;42.620;23.338;2023-02-20T06:52:55;93511.34;;;10.52;59.67
17873;BME280;36318;42.620;23.338;2023-02-20T06:55:21;93509.34;;;10.21;59.86
17873;BME280;36318;42.620;23.338;2023-02-20T06:57:48;93525.69;;;9.98;60.94
17873;BME280;36318;42.620;23.338;2023-02-20T07:00:16;93524.31;;;9.69;62.42
17873;BME280;36318;42.620;23.338;2023-02-20T07:02:44;93528.66;;;9.81;62.05
17873;BME280;36318;42.620;23.338;2023-02-20T07:05:10;93524.47;;;10.27;61.12
17873;BME280;36318;42.620;23.338;2023-02-20T07:07:37;93525.28;;;10.51;58.14
17873;BME280;36318;42.620;23.338;2023-02-20T07:10:07;93516.41;;;10.77;58.29
17873;BME280;36318;42.620;23.338;2023-02-20T07:12:33;93521.66;;;11.22;56.93
17873;BME280;36318;42.620;23.338;2023-02-20T07:15:02;93507.41;;;11.83;55.18
17873;BME280;36318;42.620;23.338;2023-02-20T07:17:28;93517.16;;;12.02;55.33
17873;BME280;36318;42.620;23.338;2023-02-20T07:19:56;93502.50;;;11.89;54.61
17873;BME280;36318;42.620;23.338;2023-02-20T07:22:23;93531.84;;;11.47;53.91
17873;BME280;36318;42.620;23.338;2023-02-20T07:24:50;93512.56;;;12.05;54.20
17873;BME280;36318;42.620;23.338;2023-02-20T07:27:16;93514.28;;;12.58;53.56
17873;BME280;36318;42.620;23.338;2023-02-20T07:29:43;93507.44;;;12.78;50.24
17873;BME280;36318;42.620;23.338;2023-02-20T07:32:10;93509.97;;;11.94;50.73
17873;BME280;36318;42.620;23.338;2023-02-20T07:34:37;93531.63;;;11.72;52.21
17873;BME280;36318;42.620;23.338;2023-02-20T07:37:05;93523.91;;;11.60;53.91
17873;BME280;36318;42.620;23.338;2023-02-20T07:39:31;93526.28;;;11.18;53.83
17873;BME280;36318;42.620;23.338;2023-02-20T07:41:58;93532.91;;;11.33;52.77
17873;BME280;36318;42.620;23.338;2023-02-20T07:44:24;93529.22;;;11.36;52.54
17873;BME280;36318;42.620;23.338;2023-02-20T07:46:51;93537.25;;;11.33;48.83
17873;BME280;36318;42.620;23.338;2023-02-20T07:49:17;93539.69;;;11.69;50.02
17873;BME280;36318;42.620;23.338;2023-02-20T07:51:44;93527.94;;;12.08;49.14
17873;BME280;36318;42.620;23.338;2023-02-20T07:54:12;93541.88;;;12.07;48.94
17873;BME280;36318;42.620;23.338;2023-02-20T07:56:39;93547.28;;;12.58;47.76
17873;BME280;36318;42.620;23.338;2023-02-20T07:59:05;93542.97;;;13.00;47.52
17873;BME280;36318;42.620;23.338;2023-02-20T08:01:32;93534.47;;;13.69;47.22
17873;BME280;36318;42.620;23.338;2023-02-20T08:03:59;93543.81;;;14.02;46.24
17873;BME280;36318;42.620;23.338;2023-02-20T08:06:25;93537.16;;;13.89;45.30
17873;BME280;36318;42.620;23.338;2023-02-20T08:08:53;93537.72;;;13.92;45.53
17873;BME280;36318;42.620;23.338;2023-02-20T08:11:22;93524.91;;;14.29;45.12
17873;BME280;36318;42.620;23.338;2023-02-20T08:13:49;93531.41;;;14.44;44.59
17873;BME280;36318;42.620;23.338;2023-02-20T08:16:15;93535.97;;;14.61;43.99
17873;BME280;36318;42.620;23.338;2023-02-20T08:18:42;93525.22;;;14.55;44.58
17873;BME280;36318;42.620;23.338;2023-02-20T08:21:09;93532.41;;;15.10;44.54
17873;BME280;36318;42.620;23.338;2023-02-20T08:23:35;93537.66;;;15.76;43.93
17873;BME280;36318;42.620;23.338;2023-02-20T08:26:03;93520.63;;;15.52;44.18
17873;BME280;36318;42.620;23.338;2023-02-20T08:28:31;93530.56;;;15.39;43.93
17873;BME280;36318;42.620;23.338;2023-02-20T08:30:57;93533.63;;;15.06;44.88
17873;BME280;36318;42.620;23.338;2023-02-20T08:33:24;93522.34;;;15.81;42.70
17873;BME280;36318;42.620;23.338;2023-02-20T08:35:51;93537.16;;;15.90;42.16
17873;BME280;36318;42.620;23.338;2023-02-20T08:38:22;93527.25;;;16.65;42.05
17873;BME280;36318;42.620;23.338;2023-02-20T08:40:49;93534.19;;;17.02;41.76
17873;BME280;36318;42.620;23.338;2023-02-20T08:43:16;93528.09;;;17.01;41.42
17873;BME280;36318;42.620;23.338;2023-02-20T08:45:44;93534.06;;;17.29;40.22
17873;BME280;36318;42.620;23.338;2023-02-20T08:48:11;93533.22;;;17.46;40.20
17873;BME280;36318;42.620;23.338;2023-02-20T08:50:38;93535.97;;;17.88;39.04
17873;BME280;36318;42.620;23.338;2023-02-20T08:53:04;93530.03;;;17.17;39.61
17873;BME280;36318;42.620;23.338;2023-02-20T08:55:31;93534.09;;;16.58;40.74
17873;BME280;36318;42.620;23.338;2023-02-20T08:57:57;93531.72;;;16.38;40.59
17873;BME280;36318;42.620;23.338;2023-02-20T09:00:24;93527.63;;;17.06;40.57
17873;BME280;36318;42.620;23.338;2023-02-20T09:02:52;93529.84;;;17.79;39.37
17873;BME280;36318;42.620;23.338;2023-02-20T09:05:18;93533.81;;;18.17;38.80
17873;BME280;36318;42.620;23.338;2023-02-20T09:07:45;93488.50;;;17.30;39.42
17873;BME280;36318;42.620;23.338;2023-02-20T09:10:12;93515.25;;;17.85;39.23
17873;BME280;36318;42.620;23.338;2023-02-20T09:12:38;93508.72;;;18.31;38.91
17873;BME280;36318;42.620;23.338;2023-02-20T09:15:06;93499.59;;;17.50;39.75
17873;BME280;36318;42.620;23.338;2023-02-20T09:17:33;93511.53;;;16.65;40.77
17873;BME280;36318;42.620;23.338;2023-02-20T09:20:01;93504.84;;;17.24;40.18
17873;BME280;36318;42.620;23.338;2023-02-20T09:22:27;93487.50;;;16.88;41.31
17873;BME280;36318;42.620;23.338;2023-02-20T09:24:54;93492.34;;;16.47;41.15
17873;BME280;36318;42.620;23.338;2023-02-20T09:27:20;93489.00;;;17.08;40.71
17873;BME280;36318;42.620;23.338;2023-02-20T09:29:47;93504.53;;;16.84;41.49
17873;BME280;36318;42.620;23.338;2023-02-20T09:32:14;93499.25;;;16.21;42.24
17873;BME280;36318;42.620;23.338;2023-02-20T09:34:40;93486.94;;;17.97;41.24
17873;BME280;36318;42.620;23.338;2023-02-20T09:37:09;93491.38;;;18.38;39.30
17873;BME280;36318;42.620;23.338;2023-02-20T09:39:36;93494.28;;;17.59;40.68
17873;BME280;36318;42.620;23.338;2023-02-20T09:42:04;93497.31;;;17.72;40.54
17873;BME280;36318;42.620;23.338;2023-02-20T09:44:36;93481.69;;;17.19;40.48
17873;BME280;36318;42.620;23.338;2023-02-20T09:47:14;93501.66;;;17.56;40.83
17873;BME280;36318;42.620;23.338;2023-02-20T09:49:45;93508.72;;;16.94;41.39
17873;BME280;36318;42.620;23.338;2023-02-20T09:52:13;93481.13;;;17.33;40.29
17873;BME280;36318;42.620;23.338;2023-02-20T09:54:42;93501.81;;;17.54;40.24
17873;BME280;36318;42.620;23.338;2023-02-20T09:57:11;93538.22;;;17.57;40.50
17873;BME280;36318;42.620;23.338;2023-02-20T09:59:40;93520.03;;;16.95;41.01
17873;BME280;36318;42.620;23.338;2023-02-20T10:02:11;93519.53;;;17.17;40.64
17873;BME280;36318;42.620;23.338;2023-02-20T10:04:41;93511.66;;;17.86;39.10
17873;BME280;36318;42.620;23.338;2023-02-20T10:07:14;93525.03;;;18.34;38.75
17873;BME280;36318;42.620;23.338;2023-02-20T10:09:42;93518.53;;;17.35;39.39
17873;BME280;36318;42.620;23.338;2023-02-20T10:12:11;93512.88;;;18.00;38.63
17873;BME280;36318;42.620;23.338;2023-02-20T10:14:45;93514.28;;;18.54;37.26
17873;BME280;36318;42.620;23.338;2023-02-20T10:17:19;93516.25;;;18.52;37.55
17873;BME280;36318;42.620;23.338;2023-02-20T10:19:50;93514.78;;;17.81;37.10
17873;BME280;36318;42.620;23.338;2023-02-20T10:22:21;93508.16;;;17.77;37.31
17873;BME280;36318;42.620;23.338;2023-02-20T10:24:52;93512.47;;;17.78;37.05
17873;BME280;36318;42.620;23.338;2023-02-20T10:27:24;93502.28;;;18.17;36.52
17873;BME280;36318;42.620;23.338;2023-02-20T10:29:54;93503.91;;;18.52;36.41
17873;BME280;36318;42.620;23.338;2023-02-20T10:32:22;93496.22;;;17.57;36.78
17873;BME280;36318;42.620;23.338;2023-02-20T10:34:53;93489.66;;;17.53;36.83
17873;BME280;36318;42.620;23.338;2023-02-20T10:37:24;93493.13;;;17.87;36.63
17873;BME280;36318;42.620;23.338;2023-02-20T10:39:53;93501.09;;;18.12;36.58
17873;BME280;36318;42.620;23.338;2023-02-20T10:42:22;93510.59;;;18.05;36.88
17873;BME280;36318;42.620;23.338;2023-02-20T10:44:55;93507.25;;;17.86;36.30
17873;BME280;36318;42.620;23.338;2023-02-20T10:47:24;93510.06;;;16.81;37.17
17873;BME280;36318;42.620;23.338;2023-02-20T10:49:55;93509.00;;;16.56;37.44
17873;BME280;36318;42.620;23.338;2023-02-20T10:52:25;93509.78;;;16.11;38.15
17873;BME280;36318;42.620;23.338;2023-02-20T10:54:53;93502.00;;;15.92;38.41
17873;BME280;36318;42.620;23.338;2023-02-20T10:57:21;93499.06;;;15.31;38.54
17873;BME280;36318;42.620;23.338;2023-02-20T10:59:51;93479.72;;;14.86;39.31
17873;BME280;36318;42.620;23.338;2023-02-20T11:02:24;93483.44;;;14.64;40.13
17873;BME280;36318;42.620;23.338;2023-02-20T11:04:53;93482.22;;;14.78;40.85
17873;BME280;36318;42.620;23.338;2023-02-20T11:07:21;93488.13;;;14.61;41.47
17873;BME280;36318;42.620;23.338;2023-02-20T11:09:49;93487.41;;;15.16;41.38
17873;BME280;36318;42.620;23.338;2023-02-20T11:12:19;93484.78;;;15.07;39.57
17873;BME280;36318;42.620;23.338;2023-02-20T11:14:47;93472.56;;;14.88;41.45
17873;BME280;36318;42.620;23.338;2023-02-20T11:17:16;93493.88;;;14.93;41.96
17873;BME280;36318;42.620;23.338;2023-02-20T11:19:45;93506.13;;;14.35;42.36
17873;BME280;36318;42.620;23.338;2023-02-20T11:22:12;93500.78;;;14.46;43.10
17873;BME280;36318;42.620;23.338;2023-02-20T11:24:40;93480.16;;;14.72;42.92
17873;BME280;36318;42.620;23.338;2023-02-20T11:27:09;93490.88;;;14.88;42.55
17873;BME280;36318;42.620;23.338;2023-02-20T11:29:39;93499.38;;;15.00;42.29
17873;BME280;36318;42.620;23.338;2023-02-20T11:32:14;93495.03;;;15.46;42.42
17873;BME280;36318;42.620;23.338;2023-02-20T11:34:45;93498.25;;;15.21;40.89
17873;BME280;36318;42.620;23.338;2023-02-20T11:37:17;93507.81;;;14.84;42.46
17873;BME280;36318;42.620;23.338;2023-02-20T11:39:44;93513.16;;;14.73;43.13
17873;BME280;36318;42.620;23.338;2023-02-20T11:42:15;93504.34;;;14.93;42.91
17873;BME280;36318;42.620;23.338;2023-02-20T11:44:42;93450.44;;;14.73;42.94
17873;BME280;36318;42.620;23.338;2023-02-20T11:47:16;93516.44;;;14.56;43.01
17873;BME280;36318;42.620;23.338;2023-02-20T11:49:43;93526.34;;;14.43;43.34
17873;BME280;36318;42.620;23.338;2023-02-20T11:52:14;93529.50;;;14.06;43.27
17873;BME280;36318;42.620;23.338;2023-02-20T11:54:41;93509.09;;;14.30;44.09
17873;BME280;36318;42.620;23.338;2023-02-20T11:57:19;93496.78;;;14.32;43.58
17873;BME280;36318;42.620;23.338;2023-02-20T11:59:47;93497.97;;;14.19;43.96
17873;BME280;36318;42.620;23.338;2023-02-20T12:02:21;93490.47;;;14.35;43.74
17873;BME280;36318;42.620;23.338;2023-02-20T12:05:03;93500.38;;;14.70;43.63
17873;BME280;36318;42.620;23.338;2023-02-20T12:07:32;93478.47;;;14.90;43.04
17873;BME280;36318;42.620;23.338;2023-02-20T12:10:00;93485.09;;;14.94;43.64
17873;BME280;36318;42.620;23.338;2023-02-20T12:12:31;93489.75;;;15.00;42.94
17873;BME280;36318;42.620;23.338;2023-02-20T12:14:58;93487.31;;;14.70;43.39
17873;BME280;36318;42.620;23.338;2023-02-20T12:17:26;93491.13;;;14.85;42.49
17873;BME280;36318;42.620;23.338;2023-02-20T12:19:56;93491.28;;;14.74;42.24
17873;BME280;36318;42.620;23.338;2023-02-20T12:22:27;93498.44;;;14.72;43.08
17873;BME280;36318;42.620;23.338;2023-02-20T12:25:00;93495.81;;;14.72;42.57
17873;BME280;36318;42.620;23.338;2023-02-20T12:27:33;93493.50;;;14.59;43.01
17873;BME280;36318;42.620;23.338;2023-02-20T12:30:02;93506.00;;;14.46;42.35
17873;BME280;36318;42.620;23.338;2023-02-20T12:32:38;93495.84;;;14.62;42.72
17873;BME280;36318;42.620;23.338;2023-02-20T12:35:18;93511.38;;;14.83;43.17
17873;BME280;36318;42.620;23.338;2023-02-20T12:37:50;93507.09;;;14.53;42.56
17873;BME280;36318;42.620;23.338;2023-02-20T12:40:36;93508.88;;;14.72;42.63
17873;BME280;36318;42.620;23.338;2023-02-20T12:43:12;93498.56;;;14.42;42.35
17873;BME280;36318;42.620;23.338;2023-02-20T12:45:44;93499.69;;;14.49;43.58
17873;BME280;36318;42.620;23.338;2023-02-20T12:48:18;93501.06;;;14.62;43.62
17873;BME280;36318;42.620;23.338;2023-02-20T12:50:51;93484.66;;;14.31;43.58
17873;BME280;36318;42.620;23.338;2023-02-20T12:53:23;93485.78;;;14.58;43.24
17873;BME280;36318;42.620;23.338;2023-02-20T12:55:59;93480.44;;;14.40;43.75
17873;BME280;36318;42.620;23.338;2023-02-20T12:58:36;93485.53;;;14.51;43.66
17873;BME280;36318;42.620;23.338;2023-02-20T13:01:05;93489.22;;;14.49;43.83